createdAt,value
2018-02-17T00:01:07.558Z,1.40
2018-02-17T00:03:35.304Z,1.50
2018-02-17T00:06:03.146Z,1.40
2018-02-17T00:08:30.888Z,1.40
2018-02-17T00:10:58.650Z,1.40
2018-02-17T00:13:26.431Z,1.40
2018-02-17T00:15:54.132Z,1.40
2018-02-17T00:18:21.835Z,1.30
2018-02-17T00:20:49.616Z,1.40
2018-02-17T00:23:17.358Z,1.40
2018-02-17T00:25:45.060Z,1.40
2018-02-17T00:28:12.901Z,1.50
2018-02-17T00:30:40.643Z,1.50
2018-02-17T00:33:08.445Z,1.60
2018-02-17T00:35:36.186Z,1.60
2018-02-17T00:38:03.969Z,1.60
2018-02-17T00:40:31.691Z,1.60
2018-02-17T00:43:01.392Z,1.60
2018-02-17T00:45:29.156Z,1.70
2018-02-17T00:47:56.835Z,1.70
2018-02-17T00:50:24.644Z,1.70
2018-02-17T00:52:52.398Z,1.60
2018-02-17T00:55:20.140Z,1.60
2018-02-17T00:57:47.841Z,1.60
2018-02-17T01:00:15.523Z,1.50
2018-02-17T01:02:43.247Z,1.50
2018-02-17T01:05:11.726Z,1.60
2018-02-17T01:07:39.401Z,1.50
2018-02-17T01:10:07.128Z,1.50
2018-02-17T01:12:34.869Z,1.50
2018-02-17T01:15:02.631Z,1.60
2018-02-17T01:17:30.374Z,1.60
2018-02-17T01:19:58.113Z,1.60
2018-02-17T01:22:26.673Z,1.60
2018-02-17T01:24:54.415Z,1.60
2018-02-17T01:27:22.115Z,1.60
2018-02-17T01:29:49.856Z,1.60
2018-02-17T01:32:17.577Z,1.70
2018-02-17T01:34:45.296Z,1.70
2018-02-17T01:37:12.976Z,1.70
2018-02-17T01:39:40.738Z,1.80
2018-02-17T01:42:08.500Z,1.80
2018-02-17T01:44:36.239Z,1.80
2018-02-17T01:47:03.981Z,1.80
2018-02-17T01:49:31.742Z,1.80
2018-02-17T01:51:59.462Z,1.80
2018-02-17T01:54:27.466Z,1.90
2018-02-17T01:56:55.165Z,1.90
2018-02-17T01:59:22.889Z,1.80
2018-02-17T02:01:50.645Z,1.80
2018-02-17T02:04:18.361Z,1.80
2018-02-17T02:06:46.120Z,1.80
2018-02-17T02:09:13.822Z,1.80
2018-02-17T02:11:41.582Z,1.80
2018-02-17T02:14:09.262Z,1.80
2018-02-17T02:16:37.003Z,1.80
2018-02-17T02:19:04.743Z,1.80
2018-02-17T02:21:32.404Z,1.80
2018-02-17T02:24:00.184Z,1.80
2018-02-17T02:26:27.887Z,1.80
2018-02-17T02:28:55.605Z,1.80
2018-02-17T02:31:23.326Z,1.80
2018-02-17T02:33:51.005Z,1.80
2018-02-17T02:36:18.766Z,1.70
2018-02-17T02:38:46.486Z,1.80
2018-02-17T02:41:14.145Z,1.80
2018-02-17T02:43:41.904Z,1.70
2018-02-17T02:46:09.566Z,1.80
2018-02-17T02:48:37.367Z,1.80
2018-02-17T02:51:05.083Z,1.80
2018-02-17T02:53:32.769Z,1.80
2018-02-17T02:56:00.468Z,1.80
2018-02-17T02:58:28.174Z,1.70
2018-02-17T03:00:56.668Z,1.70
2018-02-17T03:03:24.388Z,1.70
2018-02-17T03:05:52.109Z,1.70
2018-02-17T03:08:19.869Z,1.60
2018-02-17T03:10:47.550Z,1.60
2018-02-17T03:13:15.288Z,1.60
2018-02-17T03:15:42.988Z,1.60
2018-02-17T03:18:10.651Z,1.50
2018-02-17T03:20:38.389Z,1.50
2018-02-17T03:23:06.129Z,1.40
2018-02-17T03:25:33.889Z,1.40
2018-02-17T03:28:02.427Z,1.40
2018-02-17T03:30:30.129Z,1.40
2018-02-17T03:32:57.909Z,1.50
2018-02-17T03:35:25.570Z,1.60
2018-02-17T03:37:53.311Z,1.60
2018-02-17T03:40:21.070Z,1.60
2018-02-17T03:42:48.749Z,1.60
2018-02-17T03:45:16.471Z,1.60
2018-02-17T03:47:44.147Z,1.50
2018-02-17T03:50:11.911Z,1.50
2018-02-17T03:52:40.369Z,1.60
2018-02-17T03:55:08.068Z,1.60
2018-02-17T03:57:35.788Z,1.60
2018-02-17T04:00:03.587Z,1.60
2018-02-17T04:02:31.288Z,1.70
2018-02-17T04:04:58.968Z,1.70
2018-02-17T04:07:26.628Z,1.60
2018-02-17T04:09:54.407Z,1.60
2018-02-17T04:12:22.088Z,1.60
2018-02-17T04:14:49.805Z,1.60
2018-02-17T04:17:17.486Z,1.40
2018-02-17T04:19:45.222Z,1.20
2018-02-17T04:22:12.903Z,1.00
2018-02-17T04:24:41.385Z,0.60
2018-02-17T04:27:09.125Z,0.60
2018-02-17T04:29:36.824Z,0.30
2018-02-17T04:32:04.525Z,0.30
2018-02-17T04:34:32.264Z,0.40
2018-02-17T04:37:00.064Z,0.50
2018-02-17T04:39:27.903Z,0.70
2018-02-17T04:42:14.043Z,0.80
2018-02-17T04:44:47.303Z,0.80
2018-02-17T04:47:31.763Z,0.80
2018-02-17T04:50:05.123Z,0.90
2018-02-17T04:52:35.500Z,0.90
2018-02-17T04:58:17.273Z,0.80
2018-02-17T05:00:50.665Z,0.60
2018-02-17T05:03:34.978Z,0.20
2018-02-17T05:06:08.257Z,-0.10
2018-02-17T05:08:45.917Z,-0.20
2018-02-17T05:11:13.797Z,-0.10
2018-02-17T05:13:41.556Z,0.30
2018-02-17T05:16:10.990Z,0.50
2018-02-17T05:21:54.295Z,0.70
2018-02-17T05:24:38.894Z,0.70
2018-02-17T05:27:07.475Z,0.40
2018-02-17T05:29:37.794Z,0.10
2018-02-17T05:32:08.453Z,-0.10
2018-02-17T05:37:40.012Z,-0.40
2018-02-17T05:40:22.871Z,-0.40
2018-02-17T05:42:55.871Z,-0.30
2018-02-17T05:45:23.691Z,0.00
2018-02-17T05:47:56.384Z,0.10
2018-02-17T05:50:24.651Z,0.10
2018-02-17T05:52:52.368Z,0.00
2018-02-17T05:55:20.150Z,-0.10
2018-02-17T05:57:48.532Z,-0.10
2018-02-17T06:00:16.287Z,-0.20
2018-02-17T06:02:44.152Z,-0.10
2018-02-17T06:05:11.952Z,-0.10
2018-02-17T06:07:39.709Z,0.10
2018-02-17T06:10:07.484Z,0.20
2018-02-17T06:12:35.164Z,0.40
2018-02-17T06:15:02.947Z,0.50
2018-02-17T06:17:30.705Z,0.60
2018-02-17T06:19:58.405Z,0.40
2018-02-17T06:22:26.165Z,0.40
2018-02-17T06:24:53.925Z,0.40
2018-02-17T06:27:21.644Z,0.30
2018-02-17T06:29:49.324Z,0.20
2018-02-17T06:32:17.824Z,0.20
2018-02-17T06:34:45.583Z,0.20
2018-02-17T06:37:13.281Z,0.30
2018-02-17T06:39:40.983Z,0.30
2018-02-17T06:42:08.683Z,0.30
2018-02-17T06:44:36.423Z,0.20
2018-02-17T06:47:04.084Z,0.10
2018-02-17T06:49:31.804Z,0.10
2018-02-17T06:51:59.502Z,0.10
2018-02-17T06:54:27.223Z,0.10
2018-02-17T06:56:55.067Z,0.30
2018-02-17T06:59:22.863Z,0.50
2018-02-17T07:01:50.571Z,0.70
2018-02-17T07:04:18.391Z,0.90
2018-02-17T07:06:46.115Z,1.00
2018-02-17T07:09:13.834Z,1.20
2018-02-17T07:11:41.606Z,1.30
2018-02-17T07:14:09.366Z,1.40
2018-02-17T07:16:37.146Z,1.60
2018-02-17T07:19:04.926Z,1.60
2018-02-17T07:21:32.745Z,1.60
2018-02-17T07:24:00.486Z,1.60
2018-02-17T07:26:28.256Z,1.80
2018-02-17T07:28:56.146Z,2.10
2018-02-17T07:31:23.845Z,2.20
2018-02-17T07:33:51.604Z,2.40
2018-02-17T07:36:19.392Z,2.40
2018-02-17T07:38:47.103Z,2.60
2018-02-17T07:41:14.863Z,2.80
2018-02-17T07:43:42.622Z,3.10
2018-02-17T07:46:10.314Z,3.30
2018-02-17T07:48:39.003Z,3.50
2018-02-17T07:51:06.723Z,3.60
2018-02-17T07:53:34.511Z,3.70
2018-02-17T07:56:02.264Z,3.70
2018-02-17T07:58:30.724Z,3.70
2018-02-17T08:00:58.493Z,3.70
2018-02-17T08:03:26.211Z,3.70
2018-02-17T08:05:54.188Z,3.70
2018-02-17T08:08:21.919Z,3.70
2018-02-17T08:10:49.609Z,3.70
2018-02-17T08:13:17.362Z,3.70
2018-02-17T08:15:45.059Z,3.70
2018-02-17T08:18:12.846Z,3.80
2018-02-17T08:20:40.545Z,3.90
2018-02-17T08:23:08.342Z,4.10
2018-02-17T08:25:36.111Z,4.30
2018-02-17T08:28:05.305Z,4.40
2018-02-17T08:30:33.131Z,4.40
2018-02-17T08:33:00.863Z,4.40
2018-02-17T08:35:28.802Z,4.40
2018-02-17T08:37:56.596Z,4.30
2018-02-17T08:40:25.142Z,4.10
2018-02-17T08:42:53.681Z,3.90
2018-02-17T08:45:22.163Z,3.90
2018-02-17T08:47:50.123Z,3.90
2018-02-17T08:50:18.271Z,3.90
2018-02-17T08:52:48.736Z,3.90
2018-02-17T08:55:16.524Z,4.00
2018-02-17T08:57:45.047Z,4.20
2018-02-17T09:00:12.727Z,4.20
2018-02-17T09:02:40.503Z,4.10
2018-02-17T09:05:09.001Z,4.00
2018-02-17T09:07:36.911Z,4.00
2018-02-17T09:10:05.512Z,4.00
2018-02-17T09:12:33.306Z,4.00
2018-02-17T09:15:01.226Z,4.00
2018-02-17T09:17:28.935Z,4.10
2018-02-17T09:19:56.703Z,4.20
2018-02-17T09:22:24.444Z,4.40
2018-02-17T09:24:52.183Z,4.60
2018-02-17T09:27:19.986Z,4.90
2018-02-17T09:29:47.715Z,5.20
2018-02-17T09:32:16.574Z,5.40
2018-02-17T09:34:45.116Z,5.40
2018-02-17T09:37:13.615Z,5.30
2018-02-17T09:39:42.146Z,5.10
2018-02-17T09:42:09.827Z,5.10
2018-02-17T09:44:37.735Z,5.10
2018-02-17T09:47:05.494Z,5.10
2018-02-17T09:49:33.249Z,5.20
2018-02-17T09:52:01.027Z,5.20
2018-02-17T09:54:29.207Z,5.00
2018-02-17T09:56:58.028Z,5.00
2018-02-17T09:59:26.527Z,5.20
2018-02-17T10:01:54.269Z,5.10
2018-02-17T10:04:21.990Z,5.20
2018-02-17T10:06:50.448Z,5.00
2018-02-17T10:09:18.229Z,5.00
2018-02-17T10:11:45.991Z,5.00
2018-02-17T10:14:13.745Z,5.10
2018-02-17T10:16:41.450Z,5.20
2018-02-17T10:19:09.146Z,5.20
2018-02-17T10:21:36.886Z,5.20
2018-02-17T10:24:04.566Z,5.40
2018-02-17T10:26:32.285Z,5.50
2018-02-17T10:29:00.791Z,5.50
2018-02-17T10:31:28.486Z,5.50
2018-02-17T10:33:56.183Z,5.50
2018-02-17T10:36:23.903Z,5.30
2018-02-17T10:38:51.632Z,5.20
2018-02-17T10:41:19.384Z,5.20
2018-02-17T10:43:47.123Z,5.30
2018-02-17T10:46:14.887Z,5.50
2018-02-17T10:48:42.623Z,5.70
2018-02-17T10:51:10.408Z,5.70
2018-02-17T10:53:38.117Z,5.80
2018-02-17T10:56:06.147Z,5.70
2018-02-17T10:58:33.904Z,5.70
2018-02-17T11:01:01.587Z,5.80
2018-02-17T11:03:29.304Z,5.90
2018-02-17T11:05:56.986Z,6.00
2018-02-17T11:08:24.758Z,6.10
2018-02-17T11:10:52.634Z,6.00
2018-02-17T11:13:20.357Z,5.80
2018-02-17T11:15:48.128Z,5.80
2018-02-17T11:18:16.650Z,5.80
2018-02-17T11:20:44.511Z,5.80
2018-02-17T11:23:13.106Z,6.00
2018-02-17T11:25:40.884Z,5.90
2018-02-17T11:28:08.648Z,6.10
2018-02-17T11:30:36.346Z,5.80
2018-02-17T11:33:04.066Z,5.70
2018-02-17T11:35:32.117Z,5.80
2018-02-17T11:37:59.876Z,5.90
2018-02-17T11:40:27.680Z,6.00
2018-02-17T11:42:56.370Z,6.10
2018-02-17T11:45:25.266Z,6.00
2018-02-17T11:47:53.189Z,5.90
2018-02-17T11:50:20.922Z,5.80
2018-02-17T11:52:52.425Z,5.90
2018-02-17T11:55:21.005Z,6.10
2018-02-17T11:57:48.768Z,6.00
2018-02-17T12:00:16.460Z,6.20
2018-02-17T12:02:44.227Z,6.40
2018-02-17T12:05:11.992Z,6.50
2018-02-17T12:07:39.787Z,6.60
2018-02-17T12:10:07.487Z,6.60
2018-02-17T12:12:35.187Z,6.50
2018-02-17T12:15:02.887Z,6.60
2018-02-17T12:17:30.610Z,6.50
2018-02-17T12:19:58.385Z,6.50
2018-02-17T12:22:26.125Z,6.40
2018-02-17T12:24:53.852Z,6.20
2018-02-17T12:27:21.606Z,6.20
2018-02-17T12:29:49.654Z,6.20
2018-02-17T12:32:17.427Z,6.20
2018-02-17T12:34:45.513Z,6.10
2018-02-17T12:37:13.250Z,6.10
2018-02-17T12:39:40.987Z,6.20
2018-02-17T12:42:08.732Z,6.30
2018-02-17T12:44:36.466Z,6.30
2018-02-17T12:47:04.204Z,6.30
2018-02-17T12:49:32.831Z,6.30
2018-02-17T12:52:00.524Z,6.40
2018-02-17T12:54:28.296Z,6.40
2018-02-17T12:56:56.064Z,6.40
2018-02-17T12:59:23.806Z,6.30
2018-02-17T13:01:51.645Z,6.30
2018-02-17T13:04:19.447Z,6.30
2018-02-17T13:06:47.247Z,6.30
2018-02-17T13:09:14.966Z,6.30
2018-02-17T13:11:42.647Z,6.40
2018-02-17T13:14:10.475Z,6.30
2018-02-17T13:16:38.306Z,6.30
2018-02-17T13:19:06.867Z,6.20
2018-02-17T13:21:35.627Z,6.20
2018-02-17T13:24:03.408Z,6.20
2018-02-17T13:26:31.146Z,6.10
2018-02-17T13:28:59.646Z,5.90
2018-02-17T13:31:27.406Z,5.90
2018-02-17T13:33:55.952Z,5.90
2018-02-17T13:36:24.426Z,6.00
2018-02-17T13:38:52.150Z,6.00
2018-02-17T13:41:19.907Z,5.90
2018-02-17T13:43:47.708Z,5.90
2018-02-17T13:46:15.486Z,5.80
2018-02-17T13:48:43.167Z,5.60
2018-02-17T13:51:10.886Z,5.60
2018-02-17T13:53:38.626Z,5.60
2018-02-17T13:56:06.345Z,5.50
2018-02-17T13:58:34.066Z,5.40
2018-02-17T14:03:33.630Z,5.30
2018-02-17T14:06:01.509Z,5.30
2018-02-17T14:08:29.282Z,5.20
2018-02-17T14:10:57.029Z,5.20
2018-02-17T14:13:24.790Z,5.20
2018-02-17T14:15:53.196Z,5.20
2018-02-17T14:18:20.887Z,5.30
2018-02-17T14:20:48.627Z,5.30
2018-02-17T14:23:17.058Z,5.30
2018-02-17T14:25:44.918Z,5.30
2018-02-17T14:28:13.811Z,5.10
2018-02-17T14:30:42.045Z,5.10
2018-02-17T14:33:09.981Z,5.10
2018-02-17T14:35:38.507Z,5.10
2018-02-17T14:38:06.948Z,4.90
2018-02-17T14:40:35.208Z,4.80
2018-02-17T14:43:03.567Z,4.70
2018-02-17T14:45:31.547Z,4.70
2018-02-17T14:47:59.385Z,4.60
2018-02-17T14:50:27.347Z,4.60
2018-02-17T14:52:55.131Z,4.60
2018-02-17T14:55:22.970Z,4.50
2018-02-17T14:57:51.802Z,4.40
2018-02-17T15:00:19.672Z,4.40
2018-02-17T15:02:49.431Z,4.40
2018-02-17T15:05:19.129Z,4.30
2018-02-17T15:07:47.129Z,4.30
2018-02-17T15:10:15.673Z,4.20
2018-02-17T15:12:45.039Z,4.20
2018-02-17T15:15:13.964Z,4.10
2018-02-17T15:17:41.958Z,4.10
2018-02-17T15:20:10.003Z,4.10
2018-02-17T15:22:37.848Z,4.10
2018-02-17T15:25:05.994Z,4.10
2018-02-17T15:27:34.067Z,4.10
2018-02-17T15:30:02.696Z,4.00
2018-02-17T15:32:30.510Z,4.00
2018-02-17T15:34:58.752Z,3.90
2018-02-17T15:37:26.507Z,3.90
2018-02-17T15:39:54.714Z,3.90
2018-02-17T15:42:23.036Z,3.80
2018-02-17T15:44:51.442Z,3.80
2018-02-17T15:47:20.548Z,3.70
2018-02-17T15:49:48.431Z,3.70
2018-02-17T15:52:16.389Z,3.70
2018-02-17T15:54:44.535Z,3.70
2018-02-17T15:57:12.866Z,3.70
2018-02-17T15:59:40.696Z,3.60
2018-02-17T16:02:09.756Z,3.60
2018-02-17T16:04:37.616Z,3.60
2018-02-17T16:07:06.783Z,3.60
2018-02-17T16:09:34.605Z,3.50
2018-02-17T16:12:02.609Z,3.50
2018-02-17T16:14:30.479Z,3.50
2018-02-17T16:16:58.277Z,3.40
2018-02-17T16:19:26.150Z,3.40
2018-02-17T16:21:53.907Z,3.40
2018-02-17T16:24:21.709Z,3.40
2018-02-17T16:26:51.172Z,3.40
2018-02-17T16:29:19.005Z,3.30
2018-02-17T16:31:46.764Z,3.30
2018-02-17T16:34:14.626Z,3.30
2018-02-17T16:36:42.427Z,3.30
2018-02-17T16:39:10.638Z,3.20
2018-02-17T16:41:38.727Z,3.30
2018-02-17T16:44:06.528Z,3.30
2018-02-17T16:46:34.331Z,3.20
2018-02-17T16:49:02.160Z,3.10
2018-02-17T16:51:30.133Z,3.10
2018-02-17T16:53:57.834Z,3.00
2018-02-17T16:56:25.572Z,3.00
2018-02-17T16:58:53.627Z,3.00
2018-02-17T17:01:22.153Z,2.90
2018-02-17T17:03:50.044Z,2.90
2018-02-17T17:06:17.793Z,2.80
2018-02-17T17:08:46.777Z,2.80
2018-02-17T17:11:14.782Z,2.80
2018-02-17T17:13:44.054Z,2.70
2018-02-17T17:16:12.542Z,2.70
2018-02-17T17:18:40.455Z,2.70
2018-02-17T17:21:08.533Z,2.70
2018-02-17T17:23:37.163Z,2.70
2018-02-17T17:26:05.943Z,2.60
2018-02-17T17:28:34.930Z,2.60
2018-02-17T17:31:02.889Z,2.70
2018-02-17T17:33:30.686Z,2.60
2018-02-17T17:35:58.562Z,2.60
2018-02-17T17:38:26.836Z,2.60
2018-02-17T17:40:54.654Z,2.60
2018-02-17T17:43:23.410Z,2.60
2018-02-17T17:45:51.335Z,2.60
2018-02-17T17:48:19.088Z,2.50
2018-02-17T17:50:46.974Z,2.50
2018-02-17T17:53:15.456Z,2.50
2018-02-17T17:55:43.209Z,2.50
2018-02-17T17:58:16.249Z,2.50
2018-02-17T18:00:44.391Z,2.50
2018-02-17T18:03:12.928Z,2.50
2018-02-17T18:05:41.615Z,2.40
2018-02-17T18:08:09.589Z,2.40
2018-02-17T18:10:37.357Z,2.50
2018-02-17T18:13:05.845Z,2.50
2018-02-17T18:15:33.651Z,2.40
2018-02-17T18:18:01.390Z,2.40
2018-02-17T18:20:30.228Z,2.40
2018-02-17T18:22:57.969Z,2.30
2018-02-17T18:25:25.772Z,2.30
2018-02-17T18:27:54.279Z,2.20
2018-02-17T18:30:22.725Z,2.20
2018-02-17T18:32:50.721Z,2.10
2018-02-17T18:35:18.754Z,2.10
2018-02-17T18:40:21.489Z,2.10
2018-02-17T18:42:53.596Z,2.10
2018-02-17T18:45:21.916Z,2.00
2018-02-17T18:47:49.948Z,2.00
2018-02-17T18:50:17.889Z,2.00
2018-02-17T18:52:46.246Z,1.90
2018-02-17T18:55:15.128Z,1.90
2018-02-17T18:57:43.991Z,1.90
2018-02-17T19:00:19.246Z,1.80
2018-02-17T19:02:47.351Z,1.80
2018-02-17T19:05:15.427Z,1.80
2018-02-17T19:07:43.208Z,1.80
2018-02-17T19:10:11.151Z,1.80
2018-02-17T19:12:38.962Z,1.80
2018-02-17T19:15:07.550Z,1.70
2018-02-17T19:17:35.733Z,1.70
2018-02-17T19:20:03.491Z,1.60
2018-02-17T19:22:31.818Z,1.60
2018-02-17T19:25:00.531Z,1.60
2018-02-17T19:27:28.510Z,1.50
2018-02-17T19:29:57.456Z,1.50
2018-02-17T19:32:25.170Z,1.50
2018-02-17T19:34:53.311Z,1.50
2018-02-17T19:37:21.090Z,1.50
2018-02-17T19:39:48.869Z,1.40
2018-02-17T19:42:16.591Z,1.40
2018-02-17T19:44:44.572Z,1.40
2018-02-17T19:47:13.151Z,1.40
2018-02-17T19:49:40.970Z,1.40
2018-02-17T19:52:09.654Z,1.40
2018-02-17T19:54:44.300Z,1.40
2018-02-17T19:57:12.211Z,1.40
2018-02-17T19:59:40.293Z,1.40
2018-02-17T20:02:08.050Z,1.40
2018-02-17T20:04:36.580Z,1.50
2018-02-17T20:07:04.408Z,1.50
2018-02-17T20:09:32.596Z,1.50
2018-02-17T20:12:00.515Z,1.50
2018-02-17T20:14:28.830Z,1.50
2018-02-17T20:16:57.228Z,1.60
2018-02-17T20:19:24.992Z,1.60
2018-02-17T20:21:52.920Z,1.60
2018-02-17T20:24:20.655Z,1.60
2018-02-17T20:26:48.455Z,1.50
2018-02-17T20:29:16.248Z,1.50
2018-02-17T20:31:44.411Z,1.60
2018-02-17T20:34:12.146Z,1.50
2018-02-17T20:36:39.936Z,1.50
2018-02-17T20:39:08.589Z,1.50
2018-02-17T20:41:36.393Z,1.50
2018-02-17T20:44:04.129Z,1.50
2018-02-17T20:46:31.869Z,1.60
2018-02-17T20:48:59.657Z,1.60
2018-02-17T20:51:28.070Z,1.50
2018-02-17T20:53:55.786Z,1.50
2018-02-17T20:56:24.349Z,1.50
2018-02-17T20:58:52.051Z,1.50
2018-02-17T21:01:19.806Z,1.50
2018-02-17T21:03:47.509Z,1.50
2018-02-17T21:06:15.293Z,1.50
2018-02-17T21:08:43.558Z,1.40
2018-02-17T21:11:11.291Z,1.40
2018-02-17T21:13:39.823Z,1.40
2018-02-17T21:16:14.842Z,1.50
2018-02-17T21:18:44.046Z,1.60
2018-02-17T21:21:11.908Z,1.50
2018-02-17T21:23:40.865Z,1.60
2018-02-17T21:26:09.368Z,1.60
2018-02-17T21:28:37.140Z,1.60
2018-02-17T21:31:05.471Z,1.60
2018-02-17T21:33:34.010Z,1.70
2018-02-17T21:36:02.287Z,1.70
2018-02-17T21:38:30.092Z,1.70
2018-02-17T21:40:58.055Z,1.70
2018-02-17T21:43:25.889Z,1.70
2018-02-17T21:45:54.446Z,1.70
2018-02-17T21:48:22.262Z,1.70
2018-02-17T21:50:50.030Z,1.70
2018-02-17T21:53:17.785Z,1.70
2018-02-17T21:55:45.903Z,1.70
2018-02-17T21:58:14.003Z,1.60
2018-02-17T22:00:41.868Z,1.60
2018-02-17T22:03:09.911Z,1.60
2018-02-17T22:05:37.713Z,1.60
2018-02-17T22:08:05.975Z,1.60
2018-02-17T22:10:33.852Z,1.70
2018-02-17T22:13:02.082Z,1.70
2018-02-17T22:15:29.908Z,1.60
2018-02-17T22:17:57.648Z,1.60
2018-02-17T22:20:25.448Z,1.60
2018-02-17T22:22:54.006Z,1.50
2018-02-17T22:25:21.712Z,1.50
2018-02-17T22:27:49.451Z,1.40
2018-02-17T22:30:17.228Z,1.40
2018-02-17T22:32:44.945Z,1.30
2018-02-17T22:35:12.632Z,1.30
2018-02-17T22:37:40.434Z,1.20
2018-02-17T22:40:08.147Z,1.20
2018-02-17T22:42:35.929Z,1.20
2018-02-17T22:45:03.774Z,1.20
2018-02-17T22:47:32.373Z,1.10
2018-02-17T22:50:00.185Z,1.10
2018-02-17T22:52:27.910Z,1.00
2018-02-17T22:54:56.367Z,1.00
2018-02-17T22:57:24.065Z,1.00
2018-02-17T22:59:51.867Z,1.00
2018-02-17T23:02:19.651Z,1.10
2018-02-17T23:04:47.379Z,1.10
2018-02-17T23:07:15.155Z,1.10
2018-02-17T23:09:42.852Z,1.10
2018-02-17T23:12:10.568Z,1.10
2018-02-17T23:14:39.150Z,1.10
2018-02-17T23:17:06.890Z,1.10
2018-02-17T23:19:34.647Z,1.10
2018-02-17T23:22:02.481Z,1.10
2018-02-17T23:24:30.229Z,1.10
2018-02-17T23:26:58.029Z,1.10
2018-02-17T23:29:25.809Z,1.00
2018-02-17T23:31:54.309Z,1.00
2018-02-17T23:34:22.012Z,1.00
2018-02-17T23:36:49.771Z,1.00
2018-02-17T23:39:17.591Z,1.00
2018-02-17T23:41:45.330Z,0.90
2018-02-17T23:44:13.130Z,0.90
2018-02-17T23:46:40.910Z,0.90
2018-02-17T23:49:08.724Z,0.90
2018-02-17T23:51:36.471Z,0.90
2018-02-17T23:54:04.205Z,0.90
2018-02-17T23:56:31.905Z,0.90
2018-02-17T23:58:59.765Z,0.90
